Time;durP1;ratioP1;P1;durP2;ratioP2;P2;SDS_P1;SDS_P2;PMS_P1;PMS_P2;Temp;Humidity;BMP_temperature;BMP_pressure;BME280_temperature;BME280_humidity;BME280_pressure;Samples;Min_cycle;Max_cycle;Signal;HPM_P1;HPM_P2
2021/06/22 00:57:09;;;;;;;10.2;6.1;;;;;;;14.4;67.9;101310;;;;
2021/06/22 00:59:09;;;;;;;10.2;6.1;;;;;;;14.2;68.3;101310;;;;
2021/06/22 01:01:09;;;;;;;10.2;6.1;;;;;;;14.3;67.9;101310;;;;
2021/06/22 01:03:09;;;;;;;10.2;6.1;;;;;;;14.4;67.5;101310;;;;
2021/06/22 01:05:09;;;;;;;10.2;6.1;;;;;;;14.5;67.9;101320;;;;
2021/06/22 01:11:09;;;;;;;10.2;6.1;;;;;;;14.6;66.7;101320;;;;
2021/06/22 01:13:09;;;;;;;11.0;6.3;;;;;;;14.5;67.3;101320;;;;
2021/06/22 01:15:09;;;;;;;11.0;6.3;;;;;;;14.6;67.1;101320;;;;
2021/06/22 01:19:09;;;;;;;11.0;6.3;;;;;;;14.5;66.6;101320;;;;
2021/06/22 01:21:09;;;;;;;11.0;6.3;;;;;;;14.7;66.3;101320;;;;
2021/06/22 01:35:09;;;;;;;11.1;6.7;;;;;;;14.5;67.0;101320;;;;
2021/06/22 01:37:09;;;;;;;11.1;6.7;;;;;;;14.7;67.0;101320;;;;
2021/06/22 01:39:09;;;;;;;11.1;6.7;;;;;;;14.5;67.4;101320;;;;
2021/06/22 01:41:09;;;;;;;11.1;6.7;;;;;;;14.4;67.1;101320;;;;
2021/06/22 01:47:09;;;;;;;11.1;6.7;;;;;;;14.2;67.8;101320;;;;
2021/06/22 01:49:09;;;;;;;11.1;6.7;;;;;;;14.4;67.9;101320;;;;
2021/06/22 01:53:09;;;;;;;10.5;7.0;;;;;;;14.5;66.8;101310;;;;
2021/06/22 01:57:09;;;;;;;10.5;7.0;;;;;;;14.4;66.9;101320;;;;
2021/06/22 01:59:09;;;;;;;10.5;7.0;;;;;;;14.2;67.7;101320;;;;
2021/06/22 02:05:09;;;;;;;10.5;7.0;;;;;;;14.1;67.6;101320;;;;
2021/06/22 02:07:09;;;;;;;10.5;7.0;;;;;;;14.2;67.0;101320;;;;
2021/06/22 02:13:09;;;;;;;12.6;7.5;;;;;;;14.1;67.6;101320;;;;
2021/06/22 02:15:09;;;;;;;12.6;7.5;;;;;;;14.0;67.9;101330;;;;
2021/06/22 02:21:09;;;;;;;12.6;7.5;;;;;;;13.9;68.3;101330;;;;
2021/06/22 02:25:09;;;;;;;12.6;7.5;;;;;;;13.8;68.9;101340;;;;
2021/06/22 02:29:09;;;;;;;12.6;7.5;;;;;;;14.0;67.7;101330;;;;
2021/06/22 02:31:09;;;;;;;12.6;7.5;;;;;;;13.9;68.3;101340;;;;
2021/06/22 02:35:09;;;;;;;11.7;7.7;;;;;;;14.0;67.5;101330;;;;
2021/06/22 02:37:09;;;;;;;11.7;7.7;;;;;;;13.9;67.7;101310;;;;
2021/06/22 02:39:09;;;;;;;11.7;7.7;;;;;;;13.8;68.2;101320;;;;
2021/06/22 02:41:09;;;;;;;11.7;7.7;;;;;;;13.6;68.8;101320;;;;
2021/06/22 02:43:09;;;;;;;11.7;7.7;;;;;;;13.7;68.6;101320;;;;
2021/06/22 02:52:00;;;;;;;11.7;7.6;;;;;;;13.7;68.5;101310;;;;
2021/06/22 02:54:00;;;;;;;11.7;7.6;;;;;;;13.6;68.8;101320;;;;
2021/06/22 03:04:00;;;;;;;11.7;7.6;;;;;;;13.7;67.9;101310;;;;
2021/06/22 03:06:00;;;;;;;11.7;7.6;;;;;;;13.6;68.7;101310;;;;
2021/06/22 03:08:00;;;;;;;11.7;7.6;;;;;;;13.5;68.7;101320;;;;
2021/06/22 03:10:00;;;;;;;11.7;7.6;;;;;;;13.4;69.2;101320;;;;
2021/06/22 03:12:00;;;;;;;8.4;7.5;;;;;;;13.7;67.9;101320;;;;
2021/06/22 03:14:00;;;;;;;8.4;7.5;;;;;;;13.6;68.1;101330;;;;
2021/06/22 03:16:01;;;;;;;8.4;7.5;;;;;;;13.7;68.6;101330;;;;
2021/06/22 03:18:02;;;;;;;8.4;7.5;;;;;;;13.6;68.5;101320;;;;
2021/06/22 03:22:00;;;;;;;8.4;7.5;;;;;;;13.5;69.1;101330;;;;
2021/06/22 03:24:02;;;;;;;8.4;7.5;;;;;;;13.6;68.8;101330;;;;
2021/06/22 03:30:00;;;;;;;8.4;7.5;;;;;;;13.5;69.2;101330;;;;
2021/06/22 03:34:00;;;;;;;11.2;7.7;;;;;;;13.6;69.2;101330;;;;
2021/06/22 03:36:00;;;;;;;11.2;7.7;;;;;;;13.5;69.5;101330;;;;
2021/06/22 03:42:00;;;;;;;11.2;7.7;;;;;;;13.6;69.0;101340;;;;
2021/06/22 03:44:00;;;;;;;11.2;7.7;;;;;;;13.5;69.8;101350;;;;
2021/06/22 03:46:01;;;;;;;11.2;7.7;;;;;;;13.6;69.2;101340;;;;
2021/06/22 03:48:00;;;;;;;11.2;7.7;;;;;;;13.5;69.8;101340;;;;
2021/06/22 03:50:00;;;;;;;11.2;7.7;;;;;;;13.4;70.5;101340;;;;
2021/06/22 03:58:00;;;;;;;10.9;7.8;;;;;;;13.6;70.0;101350;;;;
2021/06/22 04:02:00;;;;;;;10.9;7.8;;;;;;;13.4;70.2;101350;;;;
2021/06/22 04:06:00;;;;;;;10.9;7.8;;;;;;;13.5;69.9;101360;;;;
2021/06/22 04:10:00;;;;;;;10.9;7.8;;;;;;;13.4;70.4;101360;;;;
2021/06/22 04:16:00;;;;;;;12.7;8.0;;;;;;;13.5;70.4;101350;;;;
2021/06/22 04:18:01;;;;;;;12.7;8.0;;;;;;;13.3;71.1;101350;;;;
2021/06/22 04:20:01;;;;;;;12.7;8.0;;;;;;;13.4;71.2;101350;;;;
2021/06/22 04:28:01;;;;;;;12.7;8.0;;;;;;;13.3;71.0;101360;;;;
2021/06/22 04:30:01;;;;;;;12.7;8.0;;;;;;;13.5;69.8;101360;;;;
2021/06/22 04:32:01;;;;;;;10.7;7.5;;;;;;;13.4;70.6;101360;;;;
2021/06/22 04:34:01;;;;;;;10.7;7.5;;;;;;;13.5;70.8;101360;;;;
2021/06/22 04:36:01;;;;;;;10.7;7.5;;;;;;;13.6;70.4;101360;;;;
2021/06/22 04:44:01;;;;;;;10.7;7.5;;;;;;;13.7;69.8;101370;;;;
2021/06/22 04:46:01;;;;;;;10.7;7.5;;;;;;;13.4;70.7;101370;;;;
2021/06/22 04:48:01;;;;;;;10.7;7.5;;;;;;;13.3;71.6;101370;;;;
2021/06/22 04:50:01;;;;;;;10.7;7.5;;;;;;;13.4;69.9;101380;;;;
2021/06/22 04:52:01;;;;;;;11.7;6.9;;;;;;;13.5;70.5;101380;;;;
2021/06/22 04:54:01;;;;;;;11.7;6.9;;;;;;;13.6;70.7;101380;;;;
2021/06/22 05:14:23;;;;;;;8.5;6.5;;;;;;;13.8;70.1;101400;;;;
2021/06/22 05:32:16;;;;;;;9.4;5.8;;;;;;;14.0;69.0;101410;;;;
2021/06/22 05:42:14;;;;;;;9.4;5.8;;;;;;;14.1;68.4;101410;;;;
2021/06/22 05:46:14;;;;;;;9.4;5.8;;;;;;;13.9;68.9;101410;;;;
2021/06/22 05:50:14;;;;;;;9.4;5.8;;;;;;;14.0;68.4;101410;;;;
2021/06/22 05:52:14;;;;;;;10.7;6.4;;;;;;;14.1;68.1;101410;;;;
2021/06/22 05:56:14;;;;;;;10.7;6.4;;;;;;;14.0;68.2;101410;;;;
2021/06/22 06:04:14;;;;;;;10.7;6.4;;;;;;;14.1;67.4;101410;;;;
2021/06/22 06:08:14;;;;;;;10.7;6.4;;;;;;;14.2;67.3;101420;;;;
2021/06/22 06:10:14;;;;;;;10.7;6.4;;;;;;;14.1;67.1;101430;;;;
2021/06/22 06:12:58;;;;;;;13.3;8.7;;;;;;;14.1;66.7;101430;;;;
2021/06/22 06:20:14;;;;;;;13.3;8.7;;;;;;;14.2;66.6;101420;;;;
2021/06/22 06:22:14;;;;;;;13.3;8.7;;;;;;;14.3;66.6;101420;;;;
2021/06/22 06:24:14;;;;;;;13.3;8.7;;;;;;;14.5;66.3;101420;;;;
2021/06/22 06:26:17;;;;;;;13.3;8.7;;;;;;;14.4;65.9;101430;;;;
2021/06/22 06:28:16;;;;;;;13.3;8.7;;;;;;;14.5;66.0;101430;;;;
2021/06/22 06:32:14;;;;;;;15.6;10.5;;;;;;;14.7;65.9;101420;;;;
2021/06/22 06:36:14;;;;;;;15.6;10.5;;;;;;;14.8;65.6;101430;;;;
2021/06/22 06:38:14;;;;;;;15.6;10.5;;;;;;;14.9;65.0;101430;;;;
2021/06/22 06:42:14;;;;;;;15.6;10.5;;;;;;;15.0;65.5;101430;;;;
2021/06/22 06:44:14;;;;;;;15.6;10.5;;;;;;;15.1;65.3;101430;;;;
2021/06/22 06:46:14;;;;;;;15.6;10.5;;;;;;;15.2;64.4;101430;;;;
2021/06/22 06:48:14;;;;;;;15.6;10.5;;;;;;;15.3;64.5;101430;;;;
2021/06/22 06:50:14;;;;;;;15.6;10.5;;;;;;;15.5;64.1;101440;;;;
2021/06/22 06:52:14;;;;;;;12.8;9.2;;;;;;;15.6;64.1;101430;;;;
2021/06/22 06:54:14;;;;;;;12.8;9.2;;;;;;;15.2;63.8;101440;;;;
2021/06/22 06:56:14;;;;;;;12.8;9.2;;;;;;;15.3;64.4;101430;;;;
2021/06/22 06:58:14;;;;;;;12.8;9.2;;;;;;;15.5;63.5;101430;;;;
2021/06/22 07:00:14;;;;;;;12.8;9.2;;;;;;;15.6;63.3;101450;;;;
2021/06/22 07:02:14;;;;;;;12.8;9.2;;;;;;;15.5;63.0;101440;;;;
2021/06/22 07:04:14;;;;;;;12.8;9.2;;;;;;;15.3;62.6;101440;;;;
2021/06/22 07:06:14;;;;;;;12.8;9.2;;;;;;;15.2;62.7;101450;;;;
2021/06/22 07:08:14;;;;;;;12.8;9.2;;;;;;;15.3;62.7;101450;;;;
2021/06/22 07:10:14;;;;;;;12.8;9.2;;;;;;;15.2;62.7;101450;;;;
2021/06/22 07:12:14;;;;;;;9.6;7.5;;;;;;;15.3;63.0;101450;;;;
2021/06/22 07:14:14;;;;;;;9.6;7.5;;;;;;;15.4;62.6;101450;;;;
2021/06/22 07:16:14;;;;;;;9.6;7.5;;;;;;;15.5;62.5;101450;;;;
2021/06/22 07:20:15;;;;;;;9.6;7.5;;;;;;;15.6;61.9;101440;;;;
2021/06/22 07:22:15;;;;;;;9.6;7.5;;;;;;;15.5;62.1;101440;;;;
2021/06/22 07:24:14;;;;;;;9.6;7.5;;;;;;;15.4;62.1;101440;;;;
2021/06/22 07:26:14;;;;;;;9.6;7.5;;;;;;;15.3;61.4;101430;;;;
2021/06/22 07:28:14;;;;;;;9.6;7.5;;;;;;;15.4;61.4;101430;;;;
2021/06/22 07:30:16;;;;;;;9.6;7.5;;;;;;;15.5;61.5;101440;;;;
2021/06/22 07:32:14;;;;;;;10.2;7.4;;;;;;;15.4;60.9;101430;;;;
2021/06/22 07:34:24;;;;;;;10.2;7.4;;;;;;;15.6;60.7;101430;;;;
2021/06/22 07:36:18;;;;;;;10.2;7.4;;;;;;;15.4;60.4;101440;;;;
2021/06/22 07:42:14;;;;;;;10.2;7.4;;;;;;;15.3;60.8;101450;;;;
2021/06/22 07:42:36;;;;;;;10.2;7.4;;;;;;;15.3;60.8;101450;;;;
2021/06/22 07:43:13;;;;;;;10.2;7.4;;;;;;;15.3;60.8;101450;;;;
2021/06/22 07:44:14;;;;;;;10.2;7.4;;;;;;;15.5;59.4;101450;;;;
2021/06/22 07:45:13;;;;;;;10.2;7.4;;;;;;;15.5;59.4;101450;;;;
2021/06/22 07:48:48;;;;;;;10.2;7.4;;;;;;;15.2;59.9;101450;;;;
2021/06/22 07:50:14;;;;;;;10.2;7.4;;;;;;;15.1;59.9;101450;;;;
2021/06/22 07:52:15;;;;;;;11.3;10.2;;;;;;;15.3;60.4;101460;;;;
2021/06/22 07:54:14;;;;;;;11.3;10.2;;;;;;;15.6;59.8;101470;;;;
2021/06/22 07:56:39;;;;;;;11.3;10.2;;;;;;;15.3;59.1;101460;;;;
2021/06/22 07:58:14;;;;;;;11.3;10.2;;;;;;;15.4;60.0;101470;;;;
2021/06/22 07:59:05;;;;;;;11.3;10.2;;;;;;;15.4;60.0;101470;;;;
2021/06/22 08:00:21;;;;;;;11.3;10.2;;;;;;;15.5;59.8;101460;;;;
2021/06/22 08:04:14;;;;;;;11.3;10.2;;;;;;;15.5;60.2;101470;;;;
2021/06/22 08:05:09;;;;;;;11.3;10.2;;;;;;;15.5;59.8;101470;;;;
2021/06/22 08:05:30;;;;;;;11.3;10.2;;;;;;;15.5;59.8;101470;;;;
2021/06/22 08:06:17;;;;;;;11.3;10.2;;;;;;;15.6;59.8;101470;;;;
2021/06/22 08:07:15;;;;;;;11.3;10.2;;;;;;;15.6;59.8;101470;;;;
2021/06/22 08:08:16;;;;;;;11.3;10.2;;;;;;;15.5;59.8;101480;;;;
2021/06/22 08:14:33;;;;;;;14.0;10.8;;;;;;;16.2;59.4;101480;;;;
2021/06/22 08:14:43;;;;;;;14.0;10.8;;;;;;;16.2;59.4;101480;;;;
2021/06/22 08:16:44;;;;;;;14.0;10.8;;;;;;;16.3;59.0;101480;;;;
2021/06/22 08:51:44;;;;;;;13.3;11.9;;;;;;;16.8;57.2;101490;;;;
2021/06/22 08:51:55;;;;;;;13.3;11.9;;;;;;;17.2;56.7;101490;;;;
2021/06/22 09:31:12;;;;;;;15.3;12.8;;;;;;;18.0;54.0;101470;;;;
2021/06/22 09:33:12;;;;;;;15.3;12.8;;;;;;;18.1;54.3;101460;;;;
2021/06/22 09:35:12;;;;;;;15.3;12.8;;;;;;;18.2;53.9;101460;;;;
2021/06/22 09:39:12;;;;;;;15.3;12.8;;;;;;;18.3;53.5;101460;;;;
2021/06/22 09:41:12;;;;;;;15.3;12.8;;;;;;;18.2;53.4;101460;;;;
2021/06/22 09:43:12;;;;;;;15.3;12.8;;;;;;;18.5;54.3;101470;;;;
2021/06/22 09:46:19;;;;;;;15.3;12.8;;;;;;;18.5;53.9;101460;;;;
2021/06/22 10:13:21;;;;;;;14.1;12.7;;;;;;;17.9;53.0;101450;;;;
2021/06/22 10:17:21;;;;;;;14.1;12.7;;;;;;;18.1;53.3;101450;;;;
2021/06/22 10:21:21;;;;;;;14.1;12.7;;;;;;;17.9;51.5;101450;;;;
2021/06/22 10:23:21;;;;;;;14.1;12.7;;;;;;;18.1;53.3;101450;;;;
2021/06/22 10:25:21;;;;;;;14.1;12.7;;;;;;;18.2;52.6;101440;;;;
2021/06/22 10:27:21;;;;;;;14.1;12.7;;;;;;;18.3;52.3;101450;;;;
2021/06/22 10:29:21;;;;;;;14.1;12.7;;;;;;;18.4;51.4;101450;;;;
2021/06/22 10:31:25;;;;;;;15.4;13.9;;;;;;;17.9;51.6;101450;;;;
2021/06/22 10:33:21;;;;;;;15.4;13.9;;;;;;;18.1;52.2;101460;;;;
2021/06/22 10:35:22;;;;;;;15.4;13.9;;;;;;;18.2;52.0;101460;;;;
2021/06/22 10:37:21;;;;;;;15.4;13.9;;;;;;;18.0;51.1;101460;;;;
2021/06/22 10:39:21;;;;;;;15.4;13.9;;;;;;;18.4;51.3;101460;;;;
2021/06/22 10:41:21;;;;;;;15.4;13.9;;;;;;;18.6;51.6;101460;;;;
2021/06/22 10:43:22;;;;;;;15.4;13.9;;;;;;;18.7;51.5;101460;;;;
2021/06/22 10:45:22;;;;;;;15.4;13.9;;;;;;;18.8;51.1;101470;;;;
2021/06/22 10:47:21;;;;;;;15.4;13.9;;;;;;;18.9;50.4;101460;;;;
2021/06/22 10:49:21;;;;;;;15.4;13.9;;;;;;;19.1;50.0;101450;;;;
2021/06/22 10:51:21;;;;;;;13.3;12.0;;;;;;;19.3;50.8;101460;;;;
2021/06/22 10:55:22;;;;;;;13.3;12.0;;;;;;;19.1;50.2;101450;;;;
2021/06/22 10:57:21;;;;;;;13.3;12.0;;;;;;;19.2;49.4;101450;;;;
2021/06/22 10:59:21;;;;;;;13.3;12.0;;;;;;;19.1;49.6;101450;;;;
2021/06/22 11:01:21;;;;;;;13.3;12.0;;;;;;;19.0;50.6;101450;;;;
2021/06/22 11:03:21;;;;;;;13.3;12.0;;;;;;;19.3;49.9;101450;;;;
2021/06/22 11:05:21;;;;;;;13.3;12.0;;;;;;;19.5;49.1;101450;;;;
2021/06/22 11:07:21;;;;;;;13.3;12.0;;;;;;;19.3;49.8;101460;;;;
2021/06/22 11:09:21;;;;;;;13.3;12.0;;;;;;;19.4;49.2;101450;;;;
2021/06/22 11:11:21;;;;;;;12.4;11.2;;;;;;;19.5;48.7;101450;;;;
2021/06/22 11:15:22;;;;;;;12.4;11.2;;;;;;;19.7;47.4;101460;;;;
2021/06/22 11:17:21;;;;;;;12.4;11.2;;;;;;;19.5;48.1;101450;;;;
2021/06/22 11:19:22;;;;;;;12.4;11.2;;;;;;;19.6;49.2;101460;;;;
2021/06/22 11:21:21;;;;;;;12.4;11.2;;;;;;;19.5;47.2;101460;;;;
2021/06/22 11:25:21;;;;;;;12.4;11.2;;;;;;;19.6;47.4;101460;;;;
2021/06/22 11:27:21;;;;;;;12.4;11.2;;;;;;;19.8;48.1;101460;;;;
2021/06/22 11:29:21;;;;;;;12.4;11.2;;;;;;;19.9;48.6;101460;;;;
2021/06/22 11:31:21;;;;;;;14.0;12.7;;;;;;;19.7;47.9;101450;;;;
2021/06/22 11:33:21;;;;;;;14.0;12.7;;;;;;;19.9;47.9;101460;;;;
2021/06/22 11:35:25;;;;;;;14.0;12.7;;;;;;;19.6;46.9;101450;;;;
2021/06/22 11:37:21;;;;;;;14.0;12.7;;;;;;;19.7;46.6;101460;;;;
2021/06/22 11:39:21;;;;;;;14.0;12.7;;;;;;;19.9;47.1;101450;;;;
2021/06/22 11:41:21;;;;;;;14.0;12.7;;;;;;;19.8;47.6;101450;;;;
2021/06/22 11:45:22;;;;;;;14.0;12.7;;;;;;;19.9;46.7;101440;;;;
2021/06/22 11:49:21;;;;;;;14.0;12.7;;;;;;;19.8;47.8;101440;;;;
2021/06/22 11:51:21;;;;;;;13.6;12.2;;;;;;;20.0;46.2;101430;;;;
2021/06/22 11:53:21;;;;;;;13.6;12.2;;;;;;;19.9;46.4;101430;;;;
2021/06/22 11:55:22;;;;;;;13.6;12.2;;;;;;;20.0;46.1;101430;;;;
2021/06/22 11:57:21;;;;;;;13.6;12.2;;;;;;;20.1;45.7;101430;;;;
2021/06/22 11:59:21;;;;;;;13.6;12.2;;;;;;;19.9;46.6;101440;;;;
2021/06/22 12:01:23;;;;;;;13.6;12.2;;;;;;;20.1;46.8;101440;;;;
2021/06/22 12:03:21;;;;;;;13.6;12.2;;;;;;;20.2;46.9;101440;;;;
2021/06/22 12:05:22;;;;;;;13.6;12.2;;;;;;;20.3;45.0;101440;;;;
2021/06/22 12:07:21;;;;;;;13.6;12.2;;;;;;;20.1;45.4;101440;;;;
2021/06/22 12:09:21;;;;;;;13.6;12.2;;;;;;;20.2;44.9;101440;;;;
2021/06/22 12:11:21;;;;;;;12.8;11.7;;;;;;;20.4;45.1;101440;;;;
2021/06/22 12:13:21;;;;;;;12.8;11.7;;;;;;;20.5;45.4;101440;;;;
2021/06/22 12:15:22;;;;;;;12.8;11.7;;;;;;;20.6;46.7;101430;;;;
2021/06/22 12:17:22;;;;;;;12.8;11.7;;;;;;;21.0;46.0;101430;;;;
2021/06/22 12:19:21;;;;;;;12.8;11.7;;;;;;;20.6;45.0;101430;;;;
2021/06/22 12:21:21;;;;;;;12.8;11.7;;;;;;;20.8;45.9;101420;;;;
2021/06/22 12:23:21;;;;;;;12.8;11.7;;;;;;;20.5;45.8;101430;;;;
2021/06/22 12:25:22;;;;;;;12.8;11.7;;;;;;;20.6;44.9;101430;;;;
2021/06/22 12:27:21;;;;;;;12.8;11.7;;;;;;;20.8;45.1;101420;;;;
2021/06/22 12:29:21;;;;;;;12.8;11.7;;;;;;;20.6;44.3;101430;;;;
2021/06/22 12:31:21;;;;;;;10.2;9.2;;;;;;;20.8;44.0;101440;;;;
2021/06/22 12:33:21;;;;;;;10.2;9.2;;;;;;;20.4;45.4;101430;;;;
2021/06/22 12:35:21;;;;;;;10.2;9.2;;;;;;;20.3;43.9;101440;;;;
2021/06/22 12:37:21;;;;;;;10.2;9.2;;;;;;;20.4;44.1;101440;;;;
2021/06/22 12:39:21;;;;;;;10.2;9.2;;;;;;;19.9;43.8;101440;;;;
2021/06/22 12:43:21;;;;;;;10.2;9.2;;;;;;;20.1;44.1;101430;;;;
2021/06/22 12:45:24;;;;;;;10.2;9.2;;;;;;;20.3;43.7;101430;;;;
2021/06/22 12:47:43;;;;;;;10.2;9.2;;;;;;;20.3;43.8;101430;;;;
2021/06/22 12:49:21;;;;;;;10.2;9.2;;;;;;;20.5;42.9;101440;;;;
2021/06/22 12:51:21;;;;;;;9.2;7.1;;;;;;;20.3;42.2;101440;;;;
2021/06/22 12:57:21;;;;;;;9.2;7.1;;;;;;;20.4;42.9;101440;;;;
2021/06/22 12:59:22;;;;;;;9.2;7.1;;;;;;;20.7;43.6;101430;;;;
2021/06/22 13:01:21;;;;;;;9.2;7.1;;;;;;;20.6;42.1;101430;;;;
2021/06/22 13:05:21;;;;;;;9.2;7.1;;;;;;;20.8;43.0;101430;;;;
2021/06/22 13:07:22;;;;;;;9.2;7.1;;;;;;;21.0;41.9;101430;;;;
2021/06/22 13:09:22;;;;;;;9.2;7.1;;;;;;;20.8;41.5;101430;;;;
2021/06/22 13:11:21;;;;;;;7.7;6.1;;;;;;;20.5;41.8;101430;;;;
2021/06/22 13:13:21;;;;;;;7.7;6.1;;;;;;;21.0;42.8;101430;;;;
2021/06/22 13:15:21;;;;;;;7.7;6.1;;;;;;;21.4;43.3;101430;;;;
2021/06/22 13:21:31;;;;;;;7.7;6.1;;;;;;;20.8;39.9;101440;;;;
2021/06/22 13:23:21;;;;;;;7.7;6.1;;;;;;;20.6;39.9;101440;;;;
2021/06/22 13:25:22;;;;;;;7.7;6.1;;;;;;;20.8;41.2;101450;;;;
2021/06/22 13:27:21;;;;;;;7.7;6.1;;;;;;;21.0;41.7;101450;;;;
2021/06/22 13:31:21;;;;;;;7.3;6.0;;;;;;;21.1;41.6;101440;;;;
2021/06/22 13:33:21;;;;;;;7.3;6.0;;;;;;;21.5;42.3;101440;;;;
2021/06/22 13:39:21;;;;;;;7.3;6.0;;;;;;;21.2;40.1;101440;;;;
2021/06/22 13:41:21;;;;;;;7.3;6.0;;;;;;;21.5;40.6;101430;;;;
2021/06/22 13:43:21;;;;;;;7.3;6.0;;;;;;;21.3;40.6;101430;;;;
2021/06/22 13:45:22;;;;;;;7.3;6.0;;;;;;;21.5;41.9;101440;;;;
2021/06/22 13:47:21;;;;;;;7.3;6.0;;;;;;;21.6;40.5;101440;;;;
2021/06/22 13:49:21;;;;;;;7.3;6.0;;;;;;;21.5;40.5;101440;;;;
2021/06/22 13:51:21;;;;;;;8.9;8.0;;;;;;;21.2;41.6;101450;;;;
2021/06/22 13:53:21;;;;;;;8.9;8.0;;;;;;;21.4;42.5;101440;;;;
2021/06/22 13:57:32;;;;;;;8.9;8.0;;;;;;;21.5;40.8;101440;;;;
2021/06/22 13:59:31;;;;;;;8.9;8.0;;;;;;;21.8;41.6;101440;;;;
2021/06/22 14:01:21;;;;;;;8.9;8.0;;;;;;;21.9;43.0;101440;;;;
2021/06/22 14:03:26;;;;;;;8.9;8.0;;;;;;;21.7;40.9;101430;;;;
2021/06/22 14:05:22;;;;;;;8.9;8.0;;;;;;;21.9;40.8;101440;;;;
2021/06/22 14:07:21;;;;;;;8.9;8.0;;;;;;;22.2;41.6;101440;;;;
2021/06/22 14:13:23;;;;;;;11.0;10.0;;;;;;;22.1;40.5;101440;;;;
2021/06/22 14:15:22;;;;;;;11.0;10.0;;;;;;;22.2;41.1;101450;;;;
2021/06/22 14:17:21;;;;;;;11.0;10.0;;;;;;;22.0;40.9;101450;;;;
2021/06/22 14:21:25;;;;;;;11.0;10.0;;;;;;;21.6;40.1;101450;;;;
2021/06/22 14:25:22;;;;;;;11.0;10.0;;;;;;;21.2;40.6;101450;;;;
2021/06/22 14:27:21;;;;;;;11.0;10.0;;;;;;;21.4;41.0;101450;;;;
2021/06/22 14:29:21;;;;;;;11.0;10.0;;;;;;;21.2;41.5;101450;;;;
2021/06/22 14:31:21;;;;;;;9.6;8.7;;;;;;;21.3;44.5;101450;;;;
2021/06/22 14:33:21;;;;;;;9.6;8.7;;;;;;;21.2;41.2;101450;;;;
2021/06/22 14:35:22;;;;;;;9.6;8.7;;;;;;;21.0;42.9;101460;;;;
2021/06/22 14:37:27;;;;;;;9.6;8.7;;;;;;;21.2;42.1;101460;;;;
2021/06/22 14:39:22;;;;;;;9.6;8.7;;;;;;;21.1;42.0;101460;;;;
2021/06/22 14:41:21;;;;;;;9.6;8.7;;;;;;;21.3;42.9;101460;;;;
2021/06/22 14:43:21;;;;;;;9.6;8.7;;;;;;;21.0;42.5;101460;;;;
2021/06/22 14:49:21;;;;;;;9.6;8.7;;;;;;;21.2;42.4;101450;;;;
2021/06/22 14:51:21;;;;;;;9.3;8.4;;;;;;;21.4;42.1;101460;;;;
2021/06/22 14:53:21;;;;;;;9.3;8.4;;;;;;;21.2;41.7;101450;;;;
2021/06/22 14:55:29;;;;;;;9.3;8.4;;;;;;;21.5;41.9;101460;;;;
2021/06/22 14:57:21;;;;;;;9.3;8.4;;;;;;;21.2;44.2;101460;;;;
2021/06/22 15:01:21;;;;;;;9.3;8.4;;;;;;;21.4;43.6;101450;;;;
2021/06/22 15:03:21;;;;;;;9.3;8.4;;;;;;;21.6;42.9;101450;;;;
2021/06/22 15:05:22;;;;;;;9.3;8.4;;;;;;;21.8;44.5;101450;;;;
2021/06/22 15:07:21;;;;;;;9.3;8.4;;;;;;;21.4;41.3;101440;;;;
2021/06/22 15:09:21;;;;;;;9.3;8.4;;;;;;;21.3;42.7;101450;;;;
2021/06/22 15:11:21;;;;;;;7.8;7.0;;;;;;;21.2;42.4;101460;;;;
2021/06/22 15:13:21;;;;;;;7.8;7.0;;;;;;;20.8;44.2;101460;;;;
2021/06/22 15:15:22;;;;;;;7.8;7.0;;;;;;;20.9;45.0;101450;;;;
2021/06/22 15:17:21;;;;;;;7.8;7.0;;;;;;;20.6;45.2;101460;;;;
2021/06/22 15:19:23;;;;;;;7.8;7.0;;;;;;;20.9;45.0;101460;;;;
2021/06/22 15:23:21;;;;;;;7.8;7.0;;;;;;;20.7;43.7;101460;;;;
2021/06/22 15:25:21;;;;;;;7.8;7.0;;;;;;;20.8;44.3;101460;;;;
2021/06/22 15:27:21;;;;;;;7.8;7.0;;;;;;;20.9;44.7;101460;;;;
2021/06/22 15:29:21;;;;;;;7.8;7.0;;;;;;;20.5;43.5;101460;;;;
2021/06/22 15:31:21;;;;;;;7.3;6.5;;;;;;;20.6;43.5;101460;;;;
2021/06/22 15:33:21;;;;;;;7.3;6.5;;;;;;;20.7;44.7;101460;;;;
2021/06/22 15:35:22;;;;;;;7.3;6.5;;;;;;;20.6;44.9;101460;;;;
2021/06/22 15:39:21;;;;;;;7.3;6.5;;;;;;;20.9;47.0;101460;;;;
2021/06/22 15:43:21;;;;;;;7.3;6.5;;;;;;;20.8;44.7;101460;;;;
2021/06/22 15:47:21;;;;;;;7.3;6.5;;;;;;;20.6;44.2;101460;;;;
2021/06/22 15:49:23;;;;;;;7.3;6.5;;;;;;;20.7;45.1;101470;;;;
2021/06/22 15:53:21;;;;;;;6.2;5.6;;;;;;;20.5;44.7;101470;;;;
2021/06/22 15:55:22;;;;;;;6.2;5.6;;;;;;;20.3;44.8;101470;;;;
2021/06/22 15:57:21;;;;;;;6.2;5.6;;;;;;;20.2;45.3;101480;;;;
2021/06/22 15:59:21;;;;;;;6.2;5.6;;;;;;;20.0;46.1;101470;;;;
2021/06/22 16:01:21;;;;;;;6.2;5.6;;;;;;;20.2;45.5;101470;;;;
2021/06/22 16:07:21;;;;;;;6.2;5.6;;;;;;;19.9;45.9;101480;;;;
2021/06/22 16:09:21;;;;;;;6.2;5.6;;;;;;;20.1;46.2;101480;;;;
2021/06/22 16:11:21;;;;;;;10.9;5.9;;;;;;;20.0;46.3;101480;;;;
2021/06/22 16:17:22;;;;;;;10.9;5.9;;;;;;;20.0;46.8;101480;;;;
2021/06/22 16:19:21;;;;;;;10.9;5.9;;;;;;;19.9;46.5;101490;;;;
2021/06/22 16:21:21;;;;;;;10.9;5.9;;;;;;;20.0;46.8;101480;;;;
2021/06/22 16:23:21;;;;;;;10.9;5.9;;;;;;;19.7;47.6;101480;;;;
2021/06/22 16:27:23;;;;;;;10.9;5.9;;;;;;;19.8;48.1;101490;;;;
2021/06/22 16:29:21;;;;;;;10.9;5.9;;;;;;;19.7;48.7;101490;;;;
2021/06/22 16:31:21;;;;;;;6.8;5.1;;;;;;;19.8;47.4;101500;;;;
2021/06/22 16:33:21;;;;;;;6.8;5.1;;;;;;;20.0;47.5;101500;;;;
2021/06/22 16:45:22;;;;;;;6.8;5.1;;;;;;;19.9;48.6;101500;;;;
2021/06/22 16:47:21;;;;;;;6.8;5.1;;;;;;;19.8;48.7;101500;;;;
2021/06/22 16:49:21;;;;;;;6.8;5.1;;;;;;;19.7;48.7;101500;;;;
2021/06/22 16:51:22;;;;;;;9.1;5.6;;;;;;;19.6;48.9;101510;;;;
2021/06/22 16:55:22;;;;;;;9.1;5.6;;;;;;;19.5;49.2;101510;;;;
2021/06/22 16:57:21;;;;;;;9.1;5.6;;;;;;;19.6;49.3;101510;;;;
2021/06/22 16:59:21;;;;;;;9.1;5.6;;;;;;;19.5;48.7;101510;;;;
2021/06/22 17:01:21;;;;;;;9.1;5.6;;;;;;;19.4;49.2;101510;;;;
2021/06/22 17:05:26;;;;;;;9.1;5.6;;;;;;;19.3;49.7;101510;;;;
2021/06/22 17:07:21;;;;;;;9.1;5.6;;;;;;;19.4;50.4;101520;;;;
2021/06/22 17:09:21;;;;;;;9.8;5.7;;;;;;;19.3;50.8;101520;;;;
2021/06/22 17:11:21;;;;;;;9.8;5.7;;;;;;;19.0;50.9;101530;;;;
2021/06/22 17:13:21;;;;;;;9.8;5.7;;;;;;;19.1;51.2;101530;;;;
2021/06/22 17:15:22;;;;;;;9.8;5.7;;;;;;;19.2;51.4;101530;;;;
2021/06/22 17:17:21;;;;;;;9.8;5.7;;;;;;;19.0;51.3;101530;;;;
2021/06/22 17:19:21;;;;;;;9.8;5.7;;;;;;;18.9;51.6;101540;;;;
2021/06/22 17:21:21;;;;;;;9.8;5.7;;;;;;;18.5;52.5;101540;;;;
2021/06/22 17:23:21;;;;;;;9.8;5.7;;;;;;;18.4;53.8;101540;;;;
2021/06/22 17:25:22;;;;;;;9.8;5.7;;;;;;;18.5;53.4;101550;;;;
2021/06/22 17:27:21;;;;;;;9.8;5.7;;;;;;;18.6;54.0;101550;;;;
2021/06/22 17:35:24;;;;;;;7.3;5.7;;;;;;;18.8;54.0;101560;;;;
2021/06/22 17:41:23;;;;;;;7.3;5.7;;;;;;;18.9;54.7;101580;;;;
2021/06/22 17:43:21;;;;;;;7.3;5.7;;;;;;;18.8;55.3;101580;;;;
2021/06/22 17:47:23;;;;;;;7.3;5.7;;;;;;;18.9;55.0;101580;;;;
2021/06/22 17:51:21;;;;;;;8.7;6.4;;;;;;;18.8;57.5;101590;;;;
2021/06/22 17:53:21;;;;;;;8.7;6.4;;;;;;;18.7;57.3;101590;;;;
2021/06/22 17:55:23;;;;;;;8.7;6.4;;;;;;;18.6;58.5;101600;;;;
2021/06/22 17:57:22;;;;;;;8.7;6.4;;;;;;;18.3;58.4;101600;;;;
2021/06/22 17:59:21;;;;;;;8.7;6.4;;;;;;;18.4;58.4;101600;;;;
2021/06/22 18:01:21;;;;;;;8.7;6.4;;;;;;;18.5;58.2;101600;;;;
2021/06/22 18:03:21;;;;;;;8.7;6.4;;;;;;;18.4;57.5;101600;;;;
2021/06/22 18:05:22;;;;;;;8.7;6.4;;;;;;;18.3;59.3;101600;;;;
2021/06/22 18:07:21;;;;;;;8.7;6.4;;;;;;;18.2;59.2;101610;;;;
2021/06/22 18:09:21;;;;;;;9.6;7.4;;;;;;;18.5;58.3;101600;;;;
2021/06/22 18:11:21;;;;;;;9.6;7.4;;;;;;;18.2;60.3;101600;;;;
2021/06/22 18:17:21;;;;;;;9.6;7.4;;;;;;;18.0;60.1;101610;;;;
2021/06/22 18:21:21;;;;;;;9.6;7.4;;;;;;;18.1;60.2;101610;;;;
2021/06/22 18:23:21;;;;;;;9.6;7.4;;;;;;;17.8;61.6;101610;;;;
2021/06/22 18:25:22;;;;;;;9.6;7.4;;;;;;;17.9;61.7;101610;;;;
2021/06/22 18:27:21;;;;;;;9.6;7.4;;;;;;;18.0;61.6;101610;;;;
2021/06/22 18:29:21;;;;;;;9.1;8.1;;;;;;;18.1;61.0;101610;;;;
2021/06/22 18:31:21;;;;;;;9.1;8.1;;;;;;;17.8;62.7;101610;;;;
2021/06/22 18:33:21;;;;;;;9.1;8.1;;;;;;;17.9;62.2;101610;;;;
2021/06/22 18:35:22;;;;;;;9.1;8.1;;;;;;;17.8;62.3;101620;;;;
2021/06/22 18:37:22;;;;;;;9.1;8.1;;;;;;;17.9;62.6;101620;;;;
2021/06/22 18:39:21;;;;;;;9.1;8.1;;;;;;;18.0;62.0;101620;;;;
2021/06/22 18:41:21;;;;;;;9.1;8.1;;;;;;;17.8;63.2;101630;;;;
2021/06/22 18:43:21;;;;;;;9.1;8.1;;;;;;;17.7;63.1;101630;;;;
2021/06/22 18:45:31;;;;;;;9.1;8.1;;;;;;;17.8;63.5;101620;;;;
2021/06/22 18:53:21;;;;;;;12.6;8.1;;;;;;;17.7;63.2;101630;;;;
2021/06/22 18:57:21;;;;;;;12.6;8.1;;;;;;;17.8;64.0;101630;;;;
2021/06/22 19:01:21;;;;;;;12.6;8.1;;;;;;;17.6;64.6;101640;;;;
2021/06/22 19:03:21;;;;;;;12.6;8.1;;;;;;;17.4;64.7;101640;;;;
2021/06/22 19:07:23;;;;;;;12.6;8.1;;;;;;;17.6;65.4;101640;;;;
2021/06/22 19:11:21;;;;;;;11.0;9.1;;;;;;;17.5;64.4;101630;;;;
2021/06/22 19:15:22;;;;;;;11.0;9.1;;;;;;;17.6;64.6;101640;;;;
2021/06/22 19:17:21;;;;;;;11.0;9.1;;;;;;;17.4;64.5;101640;;;;
2021/06/22 19:21:21;;;;;;;11.0;9.1;;;;;;;17.3;65.1;101640;;;;
2021/06/22 19:23:21;;;;;;;11.0;9.1;;;;;;;17.2;65.4;101640;;;;
2021/06/22 19:25:22;;;;;;;11.0;9.1;;;;;;;17.1;66.3;101640;;;;
2021/06/22 19:31:21;;;;;;;11.1;10.1;;;;;;;16.8;67.0;101650;;;;
2021/06/22 19:33:26;;;;;;;11.1;10.1;;;;;;;16.9;67.5;101660;;;;
2021/06/22 19:39:21;;;;;;;11.1;10.1;;;;;;;16.6;66.6;101650;;;;
2021/06/22 19:41:22;;;;;;;11.1;10.1;;;;;;;16.7;68.2;101650;;;;
2021/06/22 19:47:21;;;;;;;11.1;10.1;;;;;;;16.6;66.9;101670;;;;
2021/06/22 19:49:21;;;;;;;14.2;12.6;;;;;;;16.7;67.0;101670;;;;
2021/06/22 19:51:21;;;;;;;14.2;12.6;;;;;;;16.5;68.8;101680;;;;
2021/06/22 19:55:21;;;;;;;14.2;12.6;;;;;;;16.7;67.6;101680;;;;
2021/06/22 19:57:21;;;;;;;14.2;12.6;;;;;;;16.5;69.2;101690;;;;
2021/06/22 20:05:21;;;;;;;14.2;12.6;;;;;;;16.4;69.6;101690;;;;
2021/06/22 20:07:21;;;;;;;14.2;12.6;;;;;;;16.2;69.5;101700;;;;
2021/06/22 20:11:21;;;;;;;15.8;14.1;;;;;;;16.4;68.8;101690;;;;
2021/06/22 20:29:41;;;;;;;15.9;14.4;;;;;;;16.0;69.3;101720;;;;
2021/06/22 20:31:41;;;;;;;15.9;14.4;;;;;;;15.8;70.4;101720;;;;
2021/06/22 20:33:42;;;;;;;15.9;14.4;;;;;;;15.9;71.1;101720;;;;
2021/06/22 20:35:41;;;;;;;15.9;14.4;;;;;;;15.8;71.0;101710;;;;
2021/06/22 20:37:41;;;;;;;15.9;14.4;;;;;;;15.6;70.7;101720;;;;
2021/06/22 20:47:41;;;;;;;15.9;14.4;;;;;;;15.5;70.7;101720;;;;
2021/06/22 20:49:41;;;;;;;15.3;13.9;;;;;;;15.4;71.6;101720;;;;
2021/06/22 20:53:45;;;;;;;15.3;13.9;;;;;;;15.5;71.3;101720;;;;